createdAt,value
2017-11-01T00:01:37.854Z,20.80
2017-11-01T00:04:05.351Z,20.80
2017-11-01T00:06:32.863Z,20.80
2017-11-01T00:09:01.139Z,20.90
2017-11-01T00:11:29.544Z,20.80
2017-11-01T00:13:57.156Z,20.80
2017-11-01T00:16:27.112Z,20.80
2017-11-01T00:18:54.618Z,20.80
2017-11-01T00:21:22.139Z,20.80
2017-11-01T00:23:49.700Z,20.90
2017-11-01T00:26:17.214Z,20.90
2017-11-01T00:28:45.488Z,20.90
2017-11-01T00:31:13.086Z,20.80
2017-11-01T00:33:40.733Z,20.90
2017-11-01T00:36:08.255Z,20.90
2017-11-01T00:38:36.655Z,20.90
2017-11-01T00:41:04.314Z,20.80
2017-11-01T00:43:31.820Z,20.90
2017-11-01T00:45:59.336Z,20.90
2017-11-01T00:48:26.911Z,20.90
2017-11-01T00:50:54.437Z,20.90
2017-11-01T00:53:21.934Z,20.90
2017-11-01T00:55:49.448Z,20.90
2017-11-01T00:58:16.959Z,20.90
2017-11-01T01:00:45.259Z,20.90
2017-11-01T01:03:13.518Z,20.90
2017-11-01T01:05:41.926Z,20.90
2017-11-01T01:08:09.528Z,20.90
2017-11-01T01:10:37.244Z,20.90
2017-11-01T01:13:05.115Z,21.00
2017-11-01T01:15:32.615Z,20.90
2017-11-01T01:18:00.128Z,20.90
2017-11-01T01:20:27.623Z,20.90
2017-11-01T01:22:55.332Z,20.90
2017-11-01T01:25:22.840Z,20.90
2017-11-01T01:27:51.273Z,20.90
2017-11-01T01:30:18.772Z,20.90
2017-11-01T01:32:46.266Z,20.90
2017-11-01T01:35:14.030Z,20.90
2017-11-01T01:37:41.692Z,20.90
2017-11-01T01:40:09.195Z,20.90
2017-11-01T01:42:36.799Z,20.90
2017-11-01T01:45:04.303Z,21.00
2017-11-01T01:47:31.920Z,20.90
2017-11-01T01:49:59.423Z,21.00
2017-11-01T01:52:27.027Z,20.90
2017-11-01T01:54:54.534Z,20.90
2017-11-01T01:57:22.055Z,20.90
2017-11-01T01:59:49.611Z,21.00
2017-11-01T02:02:17.250Z,21.00
2017-11-01T02:04:44.751Z,20.90
2017-11-01T02:07:12.271Z,20.90
2017-11-01T02:09:40.037Z,20.90
2017-11-01T02:12:07.563Z,20.90
2017-11-01T02:14:35.950Z,20.90
2017-11-01T02:17:03.469Z,20.90
2017-11-01T02:19:31.736Z,20.90
2017-11-01T02:21:59.252Z,20.90
2017-11-01T02:24:26.747Z,20.90
2017-11-01T02:26:54.262Z,20.90
2017-11-01T02:29:22.637Z,20.90
2017-11-01T02:31:50.189Z,20.90
2017-11-01T02:34:17.688Z,21.00
2017-11-01T02:36:45.211Z,20.90
2017-11-01T02:39:12.748Z,20.90
2017-11-01T02:41:40.408Z,20.90
2017-11-01T02:44:08.028Z,20.90
2017-11-01T02:46:36.315Z,20.90
2017-11-01T02:49:03.997Z,20.90
2017-11-01T02:51:31.530Z,20.90
2017-11-01T02:53:59.910Z,20.90
2017-11-01T02:56:27.771Z,20.90
2017-11-01T02:58:55.471Z,20.90
2017-11-01T03:01:22.986Z,20.90
2017-11-01T03:03:51.264Z,20.90
2017-11-01T03:06:19.651Z,20.90
2017-11-01T03:08:47.138Z,20.90
2017-11-01T03:11:14.769Z,20.90
2017-11-01T03:13:42.439Z,20.90
2017-11-01T03:16:09.939Z,20.90
2017-11-01T03:18:37.444Z,20.90
2017-11-01T03:21:04.987Z,20.90
2017-11-01T03:23:32.647Z,20.90
2017-11-01T03:26:00.257Z,20.90
2017-11-01T03:28:27.755Z,20.80
2017-11-01T03:30:55.248Z,20.90
2017-11-01T03:33:22.751Z,20.90
2017-11-01T03:35:51.019Z,20.90
2017-11-01T03:38:19.436Z,20.90
2017-11-01T03:40:47.093Z,20.90
2017-11-01T03:43:14.591Z,20.90
2017-11-01T03:45:42.090Z,20.90
2017-11-01T03:48:09.654Z,20.90
2017-11-01T03:50:37.159Z,20.90
2017-11-01T03:53:04.653Z,20.90
2017-11-01T03:55:32.227Z,20.90
2017-11-01T03:57:59.870Z,20.90
2017-11-01T04:00:27.686Z,20.90
2017-11-01T04:02:55.199Z,20.90
2017-11-01T04:05:22.704Z,20.90
2017-11-01T04:07:50.976Z,20.90
2017-11-01T04:10:19.248Z,20.80
2017-11-01T04:12:46.748Z,20.80
2017-11-01T04:15:14.246Z,20.90
2017-11-01T04:17:41.807Z,20.90
2017-11-01T04:20:13.100Z,20.90
2017-11-01T04:22:40.972Z,20.80
2017-11-01T04:25:08.467Z,20.80
2017-11-01T04:27:36.091Z,20.90
2017-11-01T04:30:03.731Z,20.90
2017-11-01T04:32:31.252Z,20.80
2017-11-01T04:34:59.519Z,20.80
2017-11-01T04:37:27.123Z,20.80
2017-11-01T04:39:54.778Z,20.80
2017-11-01T04:42:22.471Z,20.80
2017-11-01T04:44:49.968Z,20.90
2017-11-01T04:47:18.367Z,20.80
2017-11-01T04:49:45.871Z,20.80
2017-11-01T04:52:13.393Z,20.80
2017-11-01T04:54:40.891Z,20.90
2017-11-01T04:57:10.028Z,20.80
2017-11-01T04:59:37.536Z,20.80
2017-11-01T05:02:05.052Z,20.90
2017-11-01T05:04:32.549Z,20.80
2017-11-01T05:07:00.256Z,20.80
2017-11-01T05:09:27.760Z,20.80
2017-11-01T05:11:55.386Z,20.80
2017-11-01T05:14:22.882Z,20.80
2017-11-01T05:16:52.204Z,20.80
2017-11-01T05:19:20.601Z,20.80
2017-11-01T05:21:48.177Z,20.80
2017-11-01T05:24:15.707Z,20.80
2017-11-01T05:26:43.363Z,20.80
2017-11-01T05:29:10.870Z,20.80
2017-11-01T05:31:38.478Z,20.80
2017-11-01T05:34:05.984Z,20.80
2017-11-01T05:36:33.500Z,20.80
2017-11-01T05:39:01.042Z,20.80
2017-11-01T05:41:28.551Z,20.70
2017-11-01T05:43:56.152Z,20.80
2017-11-01T05:46:23.817Z,20.80
2017-11-01T05:48:51.674Z,20.70
2017-11-01T05:51:19.183Z,20.90
2017-11-01T05:53:46.675Z,21.00
2017-11-01T05:56:16.863Z,21.00
2017-11-01T05:58:44.373Z,21.00
2017-11-01T06:01:11.888Z,21.00
2017-11-01T06:03:40.162Z,21.10
2017-11-01T06:06:08.427Z,21.10
2017-11-01T06:08:36.839Z,21.00
2017-11-01T06:11:04.499Z,21.00
2017-11-01T06:13:31.996Z,21.10
2017-11-01T06:15:59.611Z,21.00
2017-11-01T06:18:27.105Z,21.00
2017-11-01T06:20:54.606Z,21.00
2017-11-01T06:23:22.155Z,21.00
2017-11-01T06:25:49.664Z,21.00
2017-11-01T06:28:17.175Z,21.00
2017-11-01T06:30:45.560Z,21.00
2017-11-01T06:33:13.232Z,21.00
2017-11-01T06:35:40.740Z,21.00
2017-11-01T06:38:09.030Z,21.10
2017-11-01T06:40:37.305Z,21.10
2017-11-01T06:43:05.579Z,21.10
2017-11-01T06:45:33.846Z,21.10
2017-11-01T06:48:02.239Z,21.00
2017-11-01T06:50:29.789Z,21.00
2017-11-01T06:52:57.409Z,21.00
2017-11-01T06:55:24.911Z,21.00
2017-11-01T06:57:52.474Z,21.10
2017-11-01T07:00:19.993Z,21.10
2017-11-01T07:02:51.511Z,21.10
2017-11-01T07:05:19.940Z,21.00
2017-11-01T07:07:47.453Z,21.00
2017-11-01T07:10:15.077Z,21.00
2017-11-01T07:12:42.574Z,21.10
2017-11-01T07:15:10.176Z,21.10
2017-11-01T07:17:37.849Z,21.00
2017-11-01T07:20:05.352Z,21.10
2017-11-01T07:22:33.627Z,21.00
2017-11-01T07:25:01.222Z,21.00
2017-11-01T07:27:28.723Z,21.00
2017-11-01T07:29:56.219Z,21.00
2017-11-01T07:32:23.716Z,21.00
2017-11-01T07:34:51.264Z,21.00
2017-11-01T07:37:18.760Z,21.00
2017-11-01T07:39:46.355Z,21.10
2017-11-01T07:42:13.847Z,21.20
2017-11-01T07:44:41.339Z,21.10
2017-11-01T07:47:09.599Z,21.00
2017-11-01T07:49:37.099Z,21.00
2017-11-01T07:52:04.603Z,21.00
2017-11-01T07:54:32.125Z,21.00
2017-11-01T07:56:59.623Z,21.00
2017-11-01T07:59:27.130Z,21.00
2017-11-01T08:01:54.631Z,21.00
2017-11-01T08:04:22.152Z,21.00
2017-11-01T08:06:49.655Z,21.00
2017-11-01T08:09:17.924Z,21.10
2017-11-01T08:11:46.187Z,21.10
2017-11-01T08:14:13.699Z,21.10
2017-11-01T08:16:41.254Z,21.10
2017-11-01T08:19:08.783Z,21.10
2017-11-01T08:21:37.045Z,21.10
2017-11-01T08:24:05.319Z,21.00
2017-11-01T08:26:33.622Z,21.00
2017-11-01T08:29:01.191Z,21.00
2017-11-01T08:31:28.839Z,21.00
2017-11-01T08:33:56.484Z,21.00
2017-11-01T08:36:24.020Z,21.10
2017-11-01T08:38:52.291Z,21.10
2017-11-01T08:41:20.560Z,21.20
2017-11-01T08:43:49.731Z,21.10
2017-11-01T08:46:17.236Z,21.10
2017-11-01T08:48:44.751Z,21.10
2017-11-01T08:51:12.343Z,21.10
2017-11-01T08:53:39.858Z,21.20
2017-11-01T08:56:07.357Z,21.10
2017-11-01T08:58:34.925Z,21.10
2017-11-01T09:01:02.441Z,21.10
2017-11-01T09:03:30.855Z,21.30
2017-11-01T09:05:58.391Z,21.30
2017-11-01T09:08:25.891Z,20.50
2017-11-01T09:10:53.433Z,20.60
2017-11-01T09:13:20.939Z,20.70
2017-11-01T09:15:49.202Z,20.80
2017-11-01T09:18:16.690Z,20.70
2017-11-01T09:20:44.187Z,20.80
2017-11-01T09:23:11.682Z,20.80
2017-11-01T09:25:39.373Z,20.90
2017-11-01T09:28:06.873Z,20.80
2017-11-01T09:30:35.510Z,20.90
2017-11-01T09:33:03.007Z,20.90
2017-11-01T09:35:30.507Z,20.90
2017-11-01T09:37:58.004Z,20.90
2017-11-01T09:40:25.503Z,20.90
2017-11-01T09:42:53.175Z,21.10
2017-11-01T09:45:20.680Z,21.10
2017-11-01T09:47:48.176Z,21.00
2017-11-01T09:50:16.484Z,21.00
2017-11-01T09:52:44.040Z,21.00
2017-11-01T09:55:11.690Z,21.00
2017-11-01T09:57:39.181Z,21.10
2017-11-01T10:00:06.688Z,21.10
2017-11-01T10:02:34.239Z,20.80
2017-11-01T10:05:01.918Z,20.60
2017-11-01T10:07:29.592Z,20.80
2017-11-01T10:09:57.258Z,20.70
2017-11-01T10:12:24.884Z,20.80
2017-11-01T10:14:52.387Z,20.70
2017-11-01T10:17:19.995Z,20.80
2017-11-01T10:19:47.499Z,20.90
2017-11-01T10:22:15.106Z,21.00
2017-11-01T10:24:42.618Z,21.10
2017-11-01T10:27:10.115Z,21.10
2017-11-01T10:29:37.681Z,21.20
2017-11-01T10:32:05.333Z,21.20
2017-11-01T10:34:32.994Z,21.20
2017-11-01T10:37:00.655Z,21.20
2017-11-01T10:39:28.178Z,21.10
2017-11-01T10:41:56.461Z,21.20
2017-11-01T10:44:24.230Z,21.20
2017-11-01T10:46:51.735Z,21.20
2017-11-01T10:49:19.240Z,21.50
2017-11-01T10:51:46.822Z,21.20
2017-11-01T10:54:14.327Z,20.90
2017-11-01T10:56:42.605Z,20.40
2017-11-01T10:59:10.900Z,20.70
2017-11-01T11:01:38.494Z,20.70
2017-11-01T11:04:06.053Z,20.80
2017-11-01T11:06:33.559Z,20.80
2017-11-01T11:09:01.063Z,20.80
2017-11-01T11:11:28.577Z,20.80
2017-11-01T11:13:56.972Z,20.90
2017-11-01T11:16:24.871Z,20.90
2017-11-01T11:18:52.379Z,20.90
2017-11-01T11:21:20.151Z,20.80
2017-11-01T11:23:47.812Z,20.80
2017-11-01T11:26:15.316Z,20.80
2017-11-01T11:28:43.583Z,20.90
2017-11-01T11:31:11.079Z,20.80
2017-11-01T11:33:38.579Z,20.90
2017-11-01T11:36:06.076Z,20.90
2017-11-01T11:38:33.591Z,21.00
2017-11-01T11:41:01.094Z,21.20
2017-11-01T11:43:28.679Z,21.10
2017-11-01T11:45:56.331Z,21.10
2017-11-01T11:48:23.883Z,21.00
2017-11-01T11:50:51.427Z,21.10
2017-11-01T11:53:18.943Z,21.00
2017-11-01T11:55:47.363Z,21.00
2017-11-01T11:58:14.880Z,21.00
2017-11-01T12:00:42.381Z,21.00
2017-11-01T12:03:09.929Z,21.10
2017-11-01T12:05:37.430Z,21.00
2017-11-01T12:08:04.931Z,21.00
2017-11-01T12:10:32.448Z,21.00
2017-11-01T12:12:59.963Z,21.20
2017-11-01T12:15:27.494Z,21.10
2017-11-01T12:17:55.024Z,21.00
2017-11-01T12:20:23.361Z,20.90
2017-11-01T12:22:50.867Z,20.90
2017-11-01T12:25:19.268Z,21.10
2017-11-01T12:27:46.938Z,21.00
2017-11-01T12:30:14.596Z,21.00
2017-11-01T12:32:42.087Z,21.00
2017-11-01T12:35:09.723Z,20.90
2017-11-01T12:37:37.371Z,20.90
2017-11-01T12:40:04.868Z,20.90
2017-11-01T12:42:33.134Z,20.90
2017-11-01T12:45:00.639Z,20.90
2017-11-01T12:47:28.141Z,20.90
2017-11-01T12:49:55.666Z,20.90
2017-11-01T12:52:23.188Z,20.90
2017-11-01T12:54:51.455Z,21.00
2017-11-01T12:57:19.865Z,20.90
2017-11-01T12:59:47.358Z,20.90
2017-11-01T13:02:14.888Z,20.90
2017-11-01T13:04:42.419Z,21.00
2017-11-01T13:07:09.939Z,21.40
2017-11-01T13:09:38.209Z,21.80
2017-11-01T13:12:06.482Z,21.80
2017-11-01T13:14:34.910Z,21.90
2017-11-01T13:17:02.568Z,21.80
2017-11-01T13:19:30.059Z,21.90
2017-11-01T13:21:57.663Z,22.00
2017-11-01T13:24:25.150Z,22.00
2017-11-01T13:26:52.658Z,22.00
2017-11-01T13:29:20.938Z,22.10
2017-11-01T13:31:49.336Z,22.10
2017-11-01T13:34:17.012Z,22.10
2017-11-01T13:36:44.642Z,22.10
2017-11-01T13:39:12.143Z,22.10
2017-11-01T13:41:39.662Z,22.10
2017-11-01T13:44:07.163Z,22.00
2017-11-01T13:46:36.186Z,22.00
2017-11-01T13:49:04.481Z,22.00
2017-11-01T13:51:32.059Z,22.00
2017-11-01T13:53:59.691Z,22.00
2017-11-01T13:56:27.224Z,22.10
2017-11-01T13:58:55.491Z,22.00
2017-11-01T14:01:23.771Z,22.00
2017-11-01T14:03:52.049Z,22.00
2017-11-01T14:06:20.326Z,22.10
2017-11-01T14:08:48.590Z,22.10
2017-11-01T14:11:16.876Z,22.10
2017-11-01T14:13:44.639Z,22.10
2017-11-01T14:16:12.919Z,22.10
2017-11-01T14:18:40.526Z,22.10
2017-11-01T14:21:09.672Z,22.10
2017-11-01T14:23:37.324Z,22.10
2017-11-01T14:26:04.856Z,22.10
2017-11-01T14:28:33.267Z,22.20
2017-11-01T14:31:00.914Z,22.20
2017-11-01T14:33:28.495Z,22.30
2017-11-01T14:35:56.083Z,22.20
2017-11-01T14:38:23.583Z,22.20
2017-11-01T14:40:51.343Z,22.30
2017-11-01T14:43:18.844Z,22.30
2017-11-01T14:45:46.463Z,22.30
2017-11-01T14:48:13.963Z,22.30
2017-11-01T14:50:41.617Z,22.30
2017-11-01T14:53:09.245Z,22.30
2017-11-01T14:55:36.915Z,22.40
2017-11-01T14:58:04.442Z,22.40
2017-11-01T15:00:31.960Z,22.50
2017-11-01T15:02:59.525Z,22.50
2017-11-01T15:05:27.944Z,22.50
2017-11-01T15:07:55.491Z,22.50
2017-11-01T15:10:23.008Z,22.50
2017-11-01T15:12:50.549Z,22.60
2017-11-01T15:15:18.259Z,22.50
2017-11-01T15:17:45.811Z,22.50
2017-11-01T15:20:13.339Z,22.60
2017-11-01T15:22:40.899Z,22.50
2017-11-01T15:25:08.415Z,22.50
2017-11-01T15:27:36.263Z,22.50
2017-11-01T15:30:03.771Z,22.50
2017-11-01T15:32:31.299Z,22.50
2017-11-01T15:34:58.826Z,22.50
2017-11-01T15:37:26.356Z,22.50
2017-11-01T15:39:54.622Z,22.50
2017-11-01T15:42:22.943Z,22.60
2017-11-01T15:44:50.432Z,22.60
2017-11-01T15:47:19.572Z,22.60
2017-11-01T15:49:47.096Z,22.60
2017-11-01T15:52:15.395Z,22.60
2017-11-01T15:54:42.904Z,22.60
2017-11-01T15:57:10.441Z,22.60
2017-11-01T15:59:37.943Z,22.70
2017-11-01T16:02:06.223Z,22.70
2017-11-01T16:04:34.499Z,22.70
2017-11-01T16:07:02.158Z,22.70
2017-11-01T16:09:29.672Z,22.70
2017-11-01T16:11:57.194Z,22.80
2017-11-01T16:14:24.943Z,22.80
2017-11-01T16:16:52.463Z,22.90
2017-11-01T16:19:19.963Z,22.80
2017-11-01T16:21:47.624Z,22.90
2017-11-01T16:24:15.274Z,23.00
2017-11-01T16:26:42.793Z,23.00
2017-11-01T16:29:10.387Z,23.00
2017-11-01T16:31:37.918Z,23.00
2017-11-01T16:34:06.311Z,22.90
2017-11-01T16:36:33.966Z,22.90
2017-11-01T16:39:01.652Z,23.00
2017-11-01T16:41:29.188Z,23.00
2017-11-01T16:43:56.699Z,23.00
2017-11-01T16:46:24.259Z,22.90
2017-11-01T16:48:51.758Z,22.80
2017-11-01T16:51:19.390Z,22.80
2017-11-01T16:53:47.660Z,22.80
2017-11-01T16:56:16.059Z,22.80
2017-11-01T16:58:43.704Z,22.80
2017-11-01T17:01:12.023Z,22.80
2017-11-01T17:03:39.525Z,22.80
2017-11-01T17:06:07.916Z,22.80
2017-11-01T17:08:35.450Z,22.80
2017-11-01T17:11:02.970Z,22.80
2017-11-01T17:13:30.501Z,22.80
2017-11-01T17:15:57.998Z,22.80
2017-11-01T17:18:25.618Z,22.80
2017-11-01T17:20:53.118Z,22.80
2017-11-01T17:23:21.396Z,22.80
2017-11-01T17:25:49.015Z,22.80
2017-11-01T17:28:16.544Z,22.70
2017-11-01T17:30:44.127Z,22.70
2017-11-01T17:33:11.659Z,22.80
2017-11-01T17:35:39.230Z,22.70
2017-11-01T17:38:06.757Z,22.70
2017-11-01T17:40:35.053Z,22.80
2017-11-01T17:43:19.314Z,22.80
2017-11-01T17:45:50.812Z,22.80
2017-11-01T17:48:19.112Z,22.80
2017-11-01T17:50:49.602Z,22.80
2017-11-01T17:53:17.208Z,22.80
2017-11-01T17:55:49.488Z,22.80
2017-11-01T17:58:17.020Z,22.80
2017-11-01T18:00:45.656Z,22.80
2017-11-01T18:03:13.806Z,22.90
2017-11-01T18:05:47.825Z,22.90
2017-11-01T18:08:15.351Z,22.90
2017-11-01T18:10:42.851Z,22.90
2017-11-01T18:13:10.405Z,22.90
2017-11-01T18:15:37.904Z,23.00
2017-11-01T18:18:05.535Z,22.90
2017-11-01T18:20:33.808Z,23.10
2017-11-01T18:23:02.214Z,23.10
2017-11-01T18:25:29.720Z,23.10
2017-11-01T18:27:57.364Z,23.10
2017-11-01T18:30:24.867Z,23.10
2017-11-01T18:32:53.146Z,23.10
2017-11-01T18:35:20.652Z,23.00
2017-11-01T18:37:48.164Z,23.10
2017-11-01T18:40:15.668Z,22.90
2017-11-01T18:42:43.208Z,23.00
2017-11-01T18:45:10.776Z,23.10
2017-11-01T18:47:38.390Z,22.90
2017-11-01T18:50:05.891Z,22.80
2017-11-01T18:52:33.418Z,22.80
2017-11-01T18:55:00.933Z,22.80
2017-11-01T18:57:28.607Z,22.80
2017-11-01T18:59:56.104Z,22.70
2017-11-01T19:02:23.625Z,22.80
2017-11-01T19:04:51.212Z,22.90
2017-11-01T19:07:18.846Z,22.80
2017-11-01T19:09:46.350Z,22.80
2017-11-01T19:12:13.884Z,22.80
2017-11-01T19:14:41.394Z,23.00
2017-11-01T19:17:08.916Z,23.00
2017-11-01T19:19:36.428Z,22.90
2017-11-01T19:22:04.190Z,22.90
2017-11-01T19:24:31.858Z,22.90
2017-11-01T19:26:59.712Z,22.90
2017-11-01T19:29:27.355Z,22.90
2017-11-01T19:31:54.885Z,22.90
2017-11-01T19:34:23.168Z,22.90
2017-11-01T19:36:51.463Z,22.90
2017-11-01T19:39:19.233Z,22.80
2017-11-01T19:41:46.730Z,22.80
2017-11-01T19:44:14.352Z,22.90
2017-11-01T19:46:41.863Z,22.90
2017-11-01T19:49:10.132Z,22.90
2017-11-01T19:51:38.396Z,22.90
2017-11-01T19:54:06.666Z,22.80
2017-11-01T19:56:34.186Z,22.80
2017-11-01T19:59:01.691Z,22.80
2017-11-01T20:01:29.642Z,22.80
2017-11-01T20:03:57.139Z,22.80
2017-11-01T20:06:24.643Z,22.80
2017-11-01T20:08:52.355Z,22.80
2017-11-01T20:11:19.963Z,22.80
2017-11-01T20:13:48.975Z,23.00
2017-11-01T20:16:17.240Z,23.00
2017-11-01T20:18:44.844Z,23.00
2017-11-01T20:21:12.339Z,23.10
2017-11-01T20:23:39.859Z,23.10
2017-11-01T20:26:07.415Z,23.00
2017-11-01T20:28:35.051Z,23.00
2017-11-01T20:31:02.583Z,23.00
2017-11-01T20:33:31.011Z,23.10
2017-11-01T20:35:58.636Z,23.00
2017-11-01T20:38:26.302Z,23.10
2017-11-01T20:40:53.799Z,23.00
2017-11-01T20:43:21.414Z,23.00
2017-11-01T20:45:49.079Z,23.00
2017-11-01T20:48:16.609Z,22.90
2017-11-01T20:50:45.022Z,22.90
2017-11-01T20:53:12.663Z,22.90
2017-11-01T20:55:40.158Z,22.90
2017-11-01T20:58:07.670Z,23.00
2017-11-01T21:00:35.168Z,23.00
2017-11-01T21:03:02.723Z,22.90
2017-11-01T21:05:30.343Z,22.90
2017-11-01T21:07:57.859Z,22.90
2017-11-01T21:10:25.360Z,22.90
2017-11-01T21:12:52.892Z,22.90
2017-11-01T21:15:20.391Z,22.90
2017-11-01T21:17:47.915Z,22.90
2017-11-01T21:20:15.504Z,22.90
2017-11-01T21:22:43.139Z,22.90
2017-11-01T21:25:11.012Z,22.90
2017-11-01T21:27:38.673Z,22.90
2017-11-01T21:30:06.321Z,22.80
2017-11-01T21:32:33.987Z,22.80
2017-11-01T21:35:01.479Z,22.90
2017-11-01T21:37:29.011Z,22.90
2017-11-01T21:39:56.747Z,22.90
2017-11-01T21:42:24.256Z,22.90
2017-11-01T21:44:51.786Z,22.90
2017-11-01T21:47:19.323Z,22.90
2017-11-01T21:49:46.976Z,22.90
2017-11-01T21:52:14.474Z,22.80
2017-11-01T21:54:42.096Z,22.90
2017-11-01T21:57:09.590Z,22.90
2017-11-01T21:59:37.216Z,22.80
2017-11-01T22:02:04.711Z,22.90
2017-11-01T22:04:32.312Z,22.90
2017-11-01T22:06:59.967Z,22.90
2017-11-01T22:09:27.471Z,22.80
2017-11-01T22:11:55.087Z,22.90
2017-11-01T22:14:22.593Z,22.90
2017-11-01T22:16:50.107Z,22.90
2017-11-01T22:19:17.607Z,22.90
2017-11-01T22:21:45.123Z,22.90
2017-11-01T22:24:12.647Z,22.80
2017-11-01T22:26:41.039Z,22.80
2017-11-01T22:29:08.573Z,22.80
2017-11-01T22:31:36.839Z,22.80
2017-11-01T22:34:05.129Z,22.80
2017-11-01T22:36:32.697Z,22.80
2017-11-01T22:39:00.211Z,22.80
2017-11-01T22:41:27.720Z,22.80
2017-11-01T22:43:55.307Z,22.80
2017-11-01T22:46:22.799Z,22.80
2017-11-01T22:48:50.315Z,22.80
2017-11-01T22:51:18.023Z,22.80
2017-11-01T22:53:45.694Z,22.80
2017-11-01T22:56:13.204Z,22.80
2017-11-01T22:58:40.726Z,22.80
2017-11-01T23:01:08.231Z,22.80
2017-11-01T23:03:35.761Z,22.80
2017-11-01T23:06:03.370Z,22.80
2017-11-01T23:08:30.903Z,22.80
2017-11-01T23:10:59.288Z,22.80
2017-11-01T23:13:26.811Z,22.80
2017-11-01T23:15:54.415Z,22.80
2017-11-01T23:18:21.942Z,22.80
2017-11-01T23:20:50.343Z,22.80
2017-11-01T23:23:17.850Z,22.80
2017-11-01T23:25:45.462Z,22.80
2017-11-01T23:28:12.971Z,22.80
2017-11-01T23:30:40.472Z,22.80
2017-11-01T23:33:07.980Z,22.80
2017-11-01T23:35:35.492Z,22.80
2017-11-01T23:38:02.988Z,22.70
2017-11-01T23:40:30.591Z,22.80
2017-11-01T23:42:58.103Z,22.80
2017-11-01T23:45:25.616Z,22.80
2017-11-01T23:47:53.175Z,22.80
2017-11-01T23:50:20.817Z,22.80
2017-11-01T23:52:48.347Z,22.70
2017-11-01T23:55:16.618Z,22.80
2017-11-01T23:57:44.110Z,22.70
